Time;durP1;ratioP1;P1;durP2;ratioP2;P2;SDS_P1;SDS_P2;PMS_P1;PMS_P2;Temp;Humidity;BMP_temperature;BMP_pressure;BME280_temperature;BME280_humidity;BME280_pressure;Samples;Min_cycle;Max_cycle;Signal;HPM_P1;HPM_P2
2022/01/28 00:00:37;;;;;;;117.95;52.83;;;;;;;-3.04;69.33;98047.38;10332700;28;20069;-60
2022/01/28 00:05:37;;;;;;;96.85;48.97;;;;;;;-3.16;70.03;98046.69;10332106;28;20089;-60
2022/01/28 00:10:40;;;;;;;53.88;30.02;;;;;;;-3.27;69.73;98048.63;10332401;28;20091;-60
2022/01/28 00:16:02;;;;;;;41.35;23.35;;;;;;;-3.52;69.82;98013.34;10328695;28;20076;-60
2022/01/28 00:36:47;;;;;;;52.08;28.98;;;;;;;-3.42;70.36;98004.59;10331832;28;20068;-60
2022/01/28 00:41:46;;;;;;;64.68;32.00;;;;;;;-3.48;70.22;97995.00;10331823;28;20508;-59
2022/01/28 00:46:45;;;;;;;65.07;31.85;;;;;;;-3.39;70.32;97985.38;10328179;28;20064;-59
2022/01/28 00:51:44;;;;;;;130.90;50.78;;;;;;;-3.44;69.73;97985.88;10331488;28;20047;-60
2022/01/28 00:56:44;;;;;;;128.73;52.50;;;;;;;-3.55;69.86;97983.59;10331729;28;20946;-60
2022/01/28 01:01:44;;;;;;;99.82;41.53;;;;;;;-3.47;70.05;97978.09;10330783;28;20061;-59
2022/01/28 01:06:42;;;;;;;;;;;;;;;-3.45;70.70;97974.88;10331490;28;20089;-59
2022/01/28 01:11:42;;;;;;;118.00;58.10;;;;;;;-3.50;70.40;97963.59;10331321;28;20008;-60
2022/01/28 01:17:04;;;;;;;112.60;54.15;;;;;;;-3.42;70.45;97962.34;10334890;28;20057;-59
2022/01/28 01:22:04;;;;;;;106.07;53.17;;;;;;;-3.52;70.98;97965.16;10339405;28;20132;-59
2022/01/28 01:27:04;;;;;;;126.80;61.88;;;;;;;-3.58;70.40;97952.97;10339535;28;20073;-60
2022/01/28 01:32:12;;;;;;;105.55;53.03;;;;;;;-3.64;70.92;97941.63;10338558;28;20061;-59
2022/01/28 01:37:12;;;;;;;91.30;48.03;;;;;;;-3.77;71.58;97938.38;10338049;28;20072;-59
2022/01/28 01:42:31;;;;;;;86.07;39.55;;;;;;;-3.78;71.21;97934.09;10337475;28;20068;-60
2022/01/28 01:52:56;;;;;;;70.45;30.48;;;;;;;-3.94;71.02;97895.09;10322956;28;20068;-59
2022/01/28 01:57:56;;;;;;;55.17;23.35;;;;;;;-3.81;71.24;97923.78;10337785;28;20076;-60
2022/01/28 02:02:55;;;;;;;54.15;23.80;;;;;;;-3.82;70.98;97911.88;10337421;28;20068;-60
2022/01/28 02:07:54;;;;;;;53.70;24.23;;;;;;;-3.82;71.43;97878.06;10336897;28;20044;-60
2022/01/28 02:12:53;;;;;;;44.50;23.05;;;;;;;-4.05;71.54;97856.47;10337566;28;20065;-60
2022/01/28 02:17:52;;;;;;;;;;;;;;;-3.69;71.19;97895.72;10333999;28;20492;-60
2022/01/28 02:22:53;;;;;;;41.65;21.27;;;;;;;-3.49;70.72;97891.75;10336835;28;19905;-59
2022/01/28 02:27:53;;;;;;;38.92;19.88;;;;;;;-3.52;71.31;97881.44;10336198;28;20065;-59
2022/01/28 02:32:57;;;;;;;42.40;20.92;;;;;;;-3.48;70.62;97878.28;10336149;28;20077;-59
2022/01/28 02:37:57;;;;;;;40.97;20.40;;;;;;;-3.48;70.30;97888.44;10336212;28;20152;-60
2022/01/28 02:43:16;;;;;;;37.30;20.40;;;;;;;-3.52;70.72;97870.44;10335633;28;20512;-60
2022/01/28 02:48:21;;;;;;;33.15;18.25;;;;;;;-3.58;71.35;97861.66;10332457;28;20123;-60
2022/01/28 02:53:24;;;;;;;32.95;18.90;;;;;;;-3.44;71.20;97859.91;10335850;28;20479;-59
2022/01/28 02:58:25;;;;;;;36.60;19.10;;;;;;;-3.37;70.96;97869.59;10334971;28;20060;-59
2022/01/28 03:03:24;;;;;;;34.33;19.27;;;;;;;-3.30;71.19;97868.25;10334855;28;20087;-60
2022/01/28 03:08:27;;;;;;;54.50;29.83;;;;;;;-3.21;70.89;97857.75;10334736;28;20065;-60
2022/01/28 03:13:58;;;;;;;49.60;26.55;;;;;;;-3.23;70.28;97862.72;10334443;28;20061;-60
2022/01/28 03:23:53;;;;;;;48.65;28.17;;;;;;;-3.63;70.41;97793.75;10334967;28;20076;-59
2022/01/28 03:28:52;;;;;;;31.33;16.45;;;;;;;-3.91;70.42;97733.03;10333743;28;20076;-60
2022/01/28 03:33:51;;;;;;;39.42;21.25;;;;;;;-3.19;70.39;97846.03;10334467;28;20083;-59
2022/01/28 03:38:50;;;;;;;38.42;20.33;;;;;;;-2.91;70.46;97841.63;10333444;28;20087;-60
2022/01/28 03:43:50;;;;;;;30.70;16.10;;;;;;;-2.83;69.95;97836.94;10333453;28;20100;-60
2022/01/28 03:48:49;;;;;;;34.03;15.80;;;;;;;-2.83;69.11;97811.53;10333248;28;20065;-60
2022/01/28 03:53:48;;;;;;;30.00;15.18;;;;;;;-2.77;68.35;97822.03;10330349;28;20123;-59
2022/01/28 03:58:47;;;;;;;;;;;;;;;-2.75;68.59;97804.34;10333156;28;20485;-59
2022/01/28 04:04:16;;;;;;;32.97;16.23;;;;;;;-2.76;68.60;97802.56;10333104;28;20411;-60
2022/01/28 04:19:27;;;;;;;34.20;19.30;;;;;;;-2.66;67.82;97809.91;10331825;28;20065;-60
2022/01/28 04:24:26;;;;;;;50.40;31.52;;;;;;;-3.03;67.82;97741.97;10329116;28;20041;-59
2022/01/28 04:29:25;;;;;;;50.25;30.88;;;;;;;-2.65;67.52;97770.13;10332183;28;20554;-60
2022/01/28 04:34:24;;;;;;;44.00;24.77;;;;;;;-2.54;67.43;97782.56;10332158;28;20057;-60
2022/01/28 04:39:51;;;;;;;;;;;;;;;-2.62;67.60;97791.44;10331043;28;20061;-60
2022/01/28 04:50:04;;;;;;;48.55;27.25;;;;;;;-2.91;67.37;97773.06;10336678;28;20069;-60
2022/01/28 05:00:17;;;;;;;48.80;27.83;;;;;;;-2.86;67.97;97825.75;10339474;28;20068;-60
2022/01/28 05:10:57;;;;;;;71.80;39.00;;;;;;;-3.08;68.45;97811.94;10338985;28;20505;-60
2022/01/28 05:31:23;;;;;;;96.03;51.88;;;;;;;-3.39;69.27;97802.69;10338083;28;20535;-60
2022/01/28 05:36:22;;;;;;;88.65;46.75;;;;;;;-3.26;69.66;97854.09;10336373;28;20483;-60
2022/01/28 05:41:22;;;;;;;98.85;54.40;;;;;;;-3.27;69.61;97859.94;10337814;28;20065;-59
2022/01/28 05:46:21;;;;;;;115.78;61.65;;;;;;;-3.23;69.40;97854.25;10321263;28;20071;-60
2022/01/28 05:51:20;;;;;;;137.65;76.57;;;;;;;-3.30;69.83;97867.41;10361033;28;20044;-60
2022/01/28 05:56:19;;;;;;;104.13;52.35;;;;;;;-3.30;70.02;97859.78;10377164;28;20036;-60
2022/01/28 06:01:18;;;;;;;123.00;64.70;;;;;;;-3.26;69.75;97851.56;10350296;28;20057;-60
2022/01/28 06:06:20;;;;;;;107.50;55.38;;;;;;;-3.24;70.08;97871.16;10364184;28;20080;-60
2022/01/28 06:11:20;;;;;;;108.15;58.05;;;;;;;-3.19;69.20;97851.09;10368524;28;20519;-60
2022/01/28 06:16:19;;;;;;;90.35;48.40;;;;;;;-2.97;69.38;97873.41;10336007;28;20493;-60
2022/01/28 06:21:19;;;;;;;92.93;52.03;;;;;;;-2.82;68.89;97868.31;10336662;28;20080;-59
2022/01/28 06:26:18;;;;;;;78.25;43.40;;;;;;;-2.72;68.67;97878.16;10359309;28;20068;-60
2022/01/28 06:31:17;;;;;;;66.45;38.03;;;;;;;-2.74;68.41;97857.72;10358369;28;20057;-60
2022/01/28 06:36:16;;;;;;;63.78;37.47;;;;;;;-2.45;68.27;97876.19;10353519;28;20028;-60
2022/01/28 06:41:16;;;;;;;68.10;38.30;;;;;;;-2.65;67.54;97815.84;10371425;28;20025;-60
2022/01/28 06:46:15;;;;;;;70.72;43.22;;;;;;;-2.84;67.22;97775.94;10376021;28;20057;-60
2022/01/28 06:51:14;;;;;;;58.75;36.25;;;;;;;-1.99;67.54;97887.78;10343376;28;20061;-60
2022/01/28 06:56:13;;;;;;;84.65;48.65;;;;;;;-1.76;66.94;97882.19;10376047;28;20039;-60
2022/01/28 07:01:12;;;;;;;148.93;86.32;;;;;;;-1.53;66.75;97890.06;10368990;28;20029;-59
2022/01/28 07:06:12;;;;;;;186.55;105.75;;;;;;;-1.30;65.67;97884.41;10375557;28;20535;-60
2022/01/28 07:11:11;;;;;;;149.80;88.32;;;;;;;-1.03;65.33;97889.03;10375666;28;20060;-60
2022/01/28 07:16:10;;;;;;;102.53;62.53;;;;;;;-0.73;65.18;97893.78;10363692;28;20043;-60
2022/01/28 07:21:09;;;;;;;84.65;53.42;;;;;;;-0.42;64.32;97884.13;10334205;28;20079;-60
2022/01/28 07:26:08;;;;;;;92.30;58.05;;;;;;;-0.03;64.05;97884.13;10342308;28;20028;-60
2022/01/28 07:31:14;;;;;;;89.72;56.83;;;;;;;0.25;63.65;97885.28;10359324;28;20566;-59
2022/01/28 07:36:13;;;;;;;103.15;60.90;;;;;;;0.43;62.24;97845.22;10370250;28;20060;-60
2022/01/28 07:41:12;;;;;;;118.85;70.97;;;;;;;0.84;60.87;97881.72;10370213;28;20064;-60
2022/01/28 07:46:11;;;;;;;91.60;56.75;;;;;;;1.26;60.13;97881.59;10371877;28;20064;-60
2022/01/28 07:51:10;;;;;;;109.03;65.13;;;;;;;1.48;58.53;97887.50;10335959;28;20740;-60
2022/01/28 07:56:11;;;;;;;95.03;60.60;;;;;;;1.77;57.49;97882.59;10370070;28;20024;-59
2022/01/28 08:01:10;;;;;;;82.75;51.90;;;;;;;1.93;57.22;97879.75;10366350;28;20055;-59
2022/01/28 08:06:09;;;;;;;112.57;68.88;;;;;;;2.22;57.03;97893.53;10332739;28;20088;-59
2022/01/28 08:11:08;;;;;;;80.72;46.05;;;;;;;2.29;56.55;97881.81;10332064;28;20034;-59
2022/01/28 08:16:07;;;;;;;77.30;46.60;;;;;;;2.45;56.13;97888.34;10351005;28;20068;-59
2022/01/28 08:21:07;;;;;;;42.67;27.83;;;;;;;2.77;55.81;97881.69;10372890;28;20138;-59
2022/01/28 08:26:06;;;;;;;31.08;21.13;;;;;;;3.19;54.82;97865.88;10372871;28;20037;-59
2022/01/28 08:31:05;;;;;;;31.48;20.83;;;;;;;3.46;54.20;97831.59;10371613;28;20068;-60
2022/01/28 08:36:05;;;;;;;36.33;23.52;;;;;;;3.84;53.45;97786.44;10372567;28;20132;-60
2022/01/28 08:41:05;;;;;;;40.97;27.75;;;;;;;4.69;51.66;97853.63;10345446;28;20524;-60
2022/01/28 08:46:04;;;;;;;39.10;24.55;;;;;;;4.91;50.55;97849.84;10348320;28;20488;-59
2022/01/28 08:51:03;;;;;;;44.03;25.38;;;;;;;5.03;49.39;97862.16;10329826;28;20076;-59
2022/01/28 08:56:03;;;;;;;35.05;22.83;;;;;;;5.17;47.48;97865.03;10371065;28;20071;-59
2022/01/28 09:01:02;;;;;;;;;;;;;;;5.46;47.59;97865.63;10365392;28;20485;-60
2022/01/28 09:06:01;;;;;;;62.35;39.67;;;;;;;5.48;46.87;97885.41;10372230;28;19971;-57
2022/01/28 09:11:29;;;;;;;59.08;36.92;;;;;;;5.63;46.73;97876.31;10371394;28;20073;-57
2022/01/28 09:16:21;;;;;;;67.65;45.47;;;;;;;5.60;46.86;97868.50;10342606;28;20527;-57
2022/01/28 09:21:20;;;;;;;77.85;52.30;;;;;;;5.93;46.85;97889.78;10337323;28;20071;-59
2022/01/28 09:26:19;;;;;;;80.55;56.53;;;;;;;6.05;46.94;97903.75;10330875;28;20030;-59
2022/01/28 09:31:18;;;;;;;78.57;53.22;;;;;;;5.03;47.02;97684.69;10346314;28;20064;-59
2022/01/28 09:36:19;;;;;;;79.15;49.38;;;;;;;6.53;46.79;97908.06;10373328;28;20037;-60
2022/01/28 09:41:18;;;;;;;64.78;46.10;;;;;;;6.74;47.61;97908.41;10370782;28;20060;-59
2022/01/28 09:46:17;;;;;;;;;;;;;;;6.86;45.66;97906.88;10366430;28;20128;-58
2022/01/28 09:51:16;;;;;;;47.72;30.95;;;;;;;7.00;45.86;97905.38;10377058;28;19956;-58
2022/01/28 09:56:15;;;;;;;44.60;29.58;;;;;;;7.21;45.80;97910.84;10378731;28;20107;-58
2022/01/28 10:01:14;;;;;;;63.70;42.92;;;;;;;7.02;44.64;97891.66;10367683;28;20120;-58
2022/01/28 10:06:13;;;;;;;94.18;62.08;;;;;;;7.29;44.99;97897.19;10369276;28;20076;-58
2022/01/28 10:11:16;;;;;;;77.93;52.90;;;;;;;7.44;44.11;97888.00;10344000;28;20063;-58
2022/01/28 10:16:17;;;;;;;65.30;45.30;;;;;;;7.81;45.65;97900.53;10378070;28;20060;-58
2022/01/28 10:21:25;;;;;;;70.72;49.05;;;;;;;8.09;44.91;97904.28;10377532;28;20053;-58
2022/01/28 10:26:35;;;;;;;79.47;52.70;;;;;;;8.27;43.52;97881.22;10377298;28;20071;-58
2022/01/28 10:31:39;;;;;;;64.05;46.45;;;;;;;8.47;43.36;97896.94;10354122;28;20068;-58
2022/01/28 10:36:38;;;;;;;52.33;37.70;;;;;;;7.92;42.77;97785.25;10376816;28;20065;-58
2022/01/28 10:41:46;;;;;;;66.80;45.00;;;;;;;8.45;40.95;97911.56;10342357;28;20029;-58
2022/01/28 10:46:55;;;;;;;55.08;37.13;;;;;;;8.27;42.19;97894.16;10360344;28;20071;-58
2022/01/28 10:51:54;;;;;;;54.65;39.35;;;;;;;8.32;41.30;97898.50;10349379;28;20065;-58
2022/01/28 10:56:57;;;;;;;50.83;36.72;;;;;;;8.59;41.97;97885.81;10376068;28;20051;-58
2022/01/28 11:01:57;;;;;;;51.17;37.83;;;;;;;9.00;40.47;97897.41;10375631;28;20071;-58
2022/01/28 11:06:58;;;;;;;38.38;28.30;;;;;;;9.15;40.61;97888.00;10370643;28;20076;-58
2022/01/28 11:11:58;;;;;;;45.55;33.47;;;;;;;9.13;38.99;97812.03;10351920;28;20069;-58
2022/01/28 11:16:57;;;;;;;49.25;37.55;;;;;;;9.25;39.32;97816.41;10352972;28;20069;-58
2022/01/28 11:22:08;;;;;;;;;;;;;;;9.73;39.19;97861.56;10375770;28;20067;-58
2022/01/28 11:27:10;;;;;;;13.95;9.90;;;;;;;10.06;38.12;97859.09;10374987;28;19971;-58
2022/01/28 11:32:14;;;;;;;10.48;6.75;;;;;;;10.20;37.70;97855.66;10374849;28;20072;-58
2022/01/28 11:37:12;;;;;;;7.03;4.55;;;;;;;10.33;38.05;97851.38;10374569;28;20095;-58
2022/01/28 11:42:17;;;;;;;7.88;5.28;;;;;;;10.35;38.42;97861.75;10374291;28;20405;-58
2022/01/28 11:47:26;;;;;;;8.52;5.65;;;;;;;10.37;36.20;97860.00;10374688;28;20068;-58
2022/01/28 11:52:29;;;;;;;11.20;6.43;;;;;;;9.74;37.00;97758.78;10373933;28;20056;-58
2022/01/28 11:57:28;;;;;;;14.88;9.18;;;;;;;10.32;37.55;97851.38;10373583;28;20303;-58
2022/01/28 12:02:27;;;;;;;;;;;;;;;10.29;37.28;97856.56;10374215;28;20559;-58
2022/01/28 12:07:29;;;;;;;10.60;6.22;;;;;;;9.90;38.23;97804.59;10373435;28;19964;-58
2022/01/28 12:12:40;;;;;;;11.57;6.00;;;;;;;9.93;37.16;97853.00;10373205;28;20065;-58
2022/01/28 12:17:42;;;;;;;14.40;8.60;;;;;;;9.57;37.12;97857.19;10373361;28;20060;-58
2022/01/28 12:22:59;;;;;;;15.05;10.27;;;;;;;9.45;37.31;97851.97;10373263;28;20543;-58
2022/01/28 12:28:18;;;;;;;11.20;6.50;;;;;;;9.31;36.95;97852.75;10373307;28;20059;-58
2022/01/28 12:33:25;;;;;;;12.20;7.40;;;;;;;9.25;37.81;97851.81;10372518;28;20091;-58
2022/01/28 12:38:29;;;;;;;15.35;8.75;;;;;;;9.31;38.36;97862.25;10369051;28;20091;-58
2022/01/28 12:43:28;;;;;;;16.83;10.07;;;;;;;9.38;37.74;97845.88;10331652;28;20061;-58
2022/01/28 12:48:27;;;;;;;12.98;6.65;;;;;;;9.25;37.47;97846.63;10365662;28;20029;-58
2022/01/28 12:53:41;;;;;;;10.40;6.90;;;;;;;9.13;38.13;97835.34;10372020;28;20060;-58
2022/01/28 12:58:49;;;;;;;11.15;7.28;;;;;;;9.08;38.80;97844.78;10372841;28;20451;-59
2022/01/28 13:04:02;;;;;;;13.32;7.05;;;;;;;8.91;37.86;97841.25;10372385;28;20074;-58
2022/01/28 13:09:15;;;;;;;10.90;6.53;;;;;;;8.71;37.84;97841.94;10371648;28;20075;-58
2022/01/28 13:14:19;;;;;;;11.75;7.53;;;;;;;8.78;37.74;97853.22;10380596;28;20174;-58
2022/01/28 13:19:18;;;;;;;11.45;7.18;;;;;;;8.69;37.37;97860.91;10379844;28;20510;-58
2022/01/28 13:24:21;;;;;;;14.52;7.30;;;;;;;8.22;37.07;97869.09;10379799;28;20425;-58
2022/01/28 13:29:40;;;;;;;18.35;10.43;;;;;;;8.25;37.94;97875.19;10379069;28;20075;-58
2022/01/28 13:34:51;;;;;;;19.05;15.07;;;;;;;8.11;39.00;97883.63;10362816;28;20111;-58
2022/01/28 13:39:50;;;;;;;17.08;10.02;;;;;;;8.12;39.61;97877.63;10353636;28;20107;-58
2022/01/28 13:44:50;;;;;;;18.77;12.07;;;;;;;8.00;39.32;97883.50;10366961;28;20029;-58
2022/01/28 13:49:58;;;;;;;19.13;11.50;;;;;;;7.75;38.94;97903.03;10339293;28;20061;-58
2022/01/28 13:54:57;;;;;;;19.65;12.00;;;;;;;7.66;39.18;97909.81;10368325;28;20071;-58
2022/01/28 14:00:03;;;;;;;14.20;10.10;;;;;;;7.52;39.27;97911.34;10378198;28;20035;-58
2022/01/28 14:05:02;;;;;;;31.77;20.38;;;;;;;7.53;39.43;97905.31;10377722;28;20084;-58
2022/01/28 14:10:05;;;;;;;21.23;15.18;;;;;;;7.23;41.02;97893.69;10378001;28;20060;-57
2022/01/28 14:15:12;;;;;;;19.98;12.25;;;;;;;6.79;42.39;97911.94;10377558;28;20068;-57
2022/01/28 14:20:11;;;;;;;16.33;8.30;;;;;;;6.45;43.09;97915.66;10377776;28;20064;-57
2022/01/28 14:25:10;;;;;;;11.48;7.53;;;;;;;6.25;44.58;97920.44;10377490;28;20125;-57
2022/01/28 14:30:43;;;;;;;11.35;8.48;;;;;;;6.00;46.53;97925.94;10343122;28;20071;-57
2022/01/28 14:35:35;;;;;;;15.25;10.27;;;;;;;5.62;47.27;97933.75;10360285;28;20077;-57
2022/01/28 14:40:34;;;;;;;;;;;;;;;5.20;48.34;97953.41;10340114;28;20448;-58
2022/01/28 14:45:33;;;;;;;14.35;9.60;;;;;;;5.04;49.03;97948.75;10358469;28;20454;-58
2022/01/28 14:50:33;;;;;;;17.02;10.85;;;;;;;4.91;49.39;97955.28;10373792;28;20487;-58
2022/01/28 14:55:32;;;;;;;29.58;19.05;;;;;;;4.94;49.09;97952.81;10371057;28;20079;-58
2022/01/28 15:00:31;;;;;;;63.35;36.45;;;;;;;4.93;49.47;97951.03;10376503;28;20033;-58
2022/01/28 15:05:30;;;;;;;31.30;19.50;;;;;;;4.87;49.44;97950.88;10376051;28;20524;-58
2022/01/28 15:10:29;;;;;;;30.05;18.38;;;;;;;4.98;49.59;97959.75;10375877;28;20064;-58
2022/01/28 15:15:28;;;;;;;27.30;18.23;;;;;;;5.07;49.30;97960.00;10373870;28;20065;-58
2022/01/28 15:20:28;;;;;;;28.27;19.02;;;;;;;5.11;49.47;97971.19;10375625;28;20674;-58
2022/01/28 15:25:27;;;;;;;41.65;27.65;;;;;;;4.86;50.51;97985.16;10370161;28;20058;-58
2022/01/28 15:30:29;;;;;;;46.20;30.38;;;;;;;4.82;50.41;97999.63;10369645;28;20108;-58
2022/01/28 15:40:27;;;;;;;47.20;32.35;;;;;;;4.65;50.90;97996.63;10375323;28;20499;-58
2022/01/28 15:45:32;;;;;;;46.13;31.88;;;;;;;4.60;51.27;97995.63;10374300;28;20072;-58
2022/01/28 15:50:31;;;;;;;48.70;33.58;;;;;;;4.32;52.21;98006.88;10371930;28;20144;-58
2022/01/28 15:55:30;;;;;;;26.13;14.98;;;;;;;4.01;52.63;97994.84;10367794;28;20037;-58
2022/01/28 16:00:29;;;;;;;45.85;30.27;;;;;;;4.13;52.96;98018.31;10373012;28;20076;-58
2022/01/28 16:05:28;;;;;;;38.83;27.48;;;;;;;4.08;53.33;98025.03;10345786;28;20052;-58
2022/01/28 16:10:35;;;;;;;40.22;27.17;;;;;;;3.94;53.55;98028.88;10372592;28;20551;-58
2022/01/28 16:20:33;;;;;;;44.42;28.23;;;;;;;3.70;54.63;98050.41;10372352;28;20043;-58
2022/01/28 16:25:33;;;;;;;118.43;72.55;;;;;;;3.07;55.56;97998.81;10373981;28;20075;-58
2022/01/28 16:30:31;;;;;;;;;;;;;;;3.13;58.20;98075.97;10336196;28;20088;-58
2022/01/28 16:35:30;;;;;;;42.20;28.48;;;;;;;2.90;57.95;98060.66;10331445;28;19952;-58
2022/01/28 16:40:31;;;;;;;55.53;34.47;;;;;;;3.00;57.56;98069.53;10360350;28;20021;-58
2022/01/28 16:45:32;;;;;;;105.55;66.30;;;;;;;3.00;58.31;98078.13;10368358;28;20068;-58
2022/01/28 16:50:31;;;;;;;79.20;49.78;;;;;;;2.42;58.03;97995.78;10372065;28;20536;-58
2022/01/28 16:55:30;;;;;;;81.13;54.58;;;;;;;2.50;57.77;98018.28;10372141;28;20064;-58
2022/01/28 17:00:29;;;;;;;73.82;47.88;;;;;;;2.93;57.94;98099.25;10372401;28;20075;-58
2022/01/28 17:05:28;;;;;;;75.63;49.60;;;;;;;2.84;58.62;98114.28;10370726;28;20049;-58
2022/01/28 17:10:42;;;;;;;73.32;48.70;;;;;;;2.68;57.93;98094.06;10372157;28;20543;-58
2022/01/28 17:15:43;;;;;;;49.53;32.70;;;;;;;2.84;57.89;98114.28;10370531;28;20075;-58
2022/01/28 17:20:42;;;;;;;62.30;43.42;;;;;;;2.76;57.94;98125.94;10370122;28;20067;-58
2022/01/28 17:25:40;;;;;;;61.78;41.33;;;;;;;2.76;58.01;98124.25;10356276;28;20041;-58
2022/01/28 17:30:39;;;;;;;58.25;37.13;;;;;;;2.83;58.29;98127.91;10330591;28;20504;-58
2022/01/28 17:35:39;;;;;;;85.53;54.90;;;;;;;2.50;58.48;98079.78;10327825;28;20036;-58
2022/01/28 17:40:38;;;;;;;99.40;64.47;;;;;;;2.64;59.98;98146.88;10329827;28;20492;-58
2022/01/28 17:45:37;;;;;;;92.93;61.67;;;;;;;2.14;60.54;98087.84;10330643;28;20528;-58
2022/01/28 17:50:36;;;;;;;80.15;51.47;;;;;;;2.22;60.75;98138.47;10329724;28;20515;-58
2022/01/28 17:55:35;;;;;;;66.95;43.83;;;;;;;2.41;60.63;98179.31;10368916;28;20032;-58
2022/01/28 18:00:34;;;;;;;66.78;41.42;;;;;;;2.14;60.43;98139.06;10365765;28;20064;-58
2022/01/28 18:05:34;;;;;;;;;;;;;;;2.42;60.49;98181.09;10377456;28;20527;-57
2022/01/28 18:10:34;;;;;;;81.90;51.60;;;;;;;2.45;59.93;98201.69;10376954;28;20387;-57
2022/01/28 18:15:34;;;;;;;95.07;58.75;;;;;;;2.44;60.65;98201.63;10377869;28;20797;-57
2022/01/28 18:20:33;;;;;;;106.45;65.88;;;;;;;2.33;61.00;98190.97;10376503;28;20061;-57
2022/01/28 18:25:33;;;;;;;145.95;89.95;;;;;;;2.32;60.75;98202.88;10377418;28;20494;-57
2022/01/28 18:30:32;;;;;;;148.95;90.07;;;;;;;2.31;61.55;98207.97;10374014;28;20075;-57
2022/01/28 18:35:31;;;;;;;149.63;91.38;;;;;;;2.09;62.04;98184.09;10376255;28;20068;-59
2022/01/28 18:40:31;;;;;;;157.98;95.55;;;;;;;2.06;62.67;98214.69;10376705;28;20060;-57
2022/01/28 18:45:39;;;;;;;157.43;94.68;;;;;;;2.04;62.63;98212.88;10376222;28;20071;-58
2022/01/28 18:50:38;;;;;;;145.93;85.97;;;;;;;2.04;62.64;98212.88;10374363;28;20141;-57
2022/01/28 18:55:37;;;;;;;155.63;98.85;;;;;;;1.91;63.81;98221.75;10375408;28;20068;-57
2022/01/28 19:00:36;;;;;;;70.45;41.30;;;;;;;1.86;63.76;98218.13;10351347;28;20068;-57
2022/01/28 19:05:35;;;;;;;110.13;64.38;;;;;;;1.78;63.91;98239.97;10332680;28;20092;-57
2022/01/28 19:10:34;;;;;;;88.57;53.05;;;;;;;1.89;63.70;98228.50;10333214;28;20073;-57
2022/01/28 19:15:34;;;;;;;55.92;34.13;;;;;;;1.83;63.42;98225.66;10333582;28;20064;-59
2022/01/28 19:20:32;;;;;;;24.67;14.50;;;;;;;1.74;61.45;98229.63;10333595;28;20065;-57
2022/01/28 19:25:32;;;;;;;42.53;30.98;;;;;;;1.66;61.23;98204.53;10333283;28;20029;-57
2022/01/28 19:30:30;;;;;;;46.53;25.23;;;;;;;1.57;59.97;98147.88;10342562;28;20068;-57
2022/01/28 19:35:30;;;;;;;73.53;46.72;;;;;;;2.15;60.02;98222.72;10374510;28;20033;-57
2022/01/28 19:40:29;;;;;;;61.58;38.17;;;;;;;2.11;60.52;98231.13;10372307;28;20067;-57
2022/01/28 19:45:32;;;;;;;84.70;48.67;;;;;;;2.11;60.38;98222.53;10374559;28;20076;-57
2022/01/28 19:50:31;;;;;;;89.50;52.50;;;;;;;1.93;60.61;98209.91;10374118;28;20079;-57
2022/01/28 19:55:30;;;;;;;116.63;70.60;;;;;;;2.02;61.17;98235.88;10373154;28;20033;-57
2022/01/28 20:00:29;;;;;;;121.55;75.90;;;;;;;1.95;61.11;98231.31;10362059;28;20088;-57
2022/01/28 20:05:28;;;;;;;116.05;71.72;;;;;;;1.83;61.87;98223.13;10332134;28;20489;-57
2022/01/28 20:10:27;;;;;;;100.30;63.85;;;;;;;1.69;62.19;98223.44;10330868;28;20515;-57
2022/01/28 20:15:26;;;;;;;100.72;59.53;;;;;;;1.53;62.33;98231.28;10331497;28;20064;-57
2022/01/28 20:20:26;;;;;;;83.47;49.92;;;;;;;1.37;62.33;98218.66;10329719;28;20040;-58
2022/01/28 20:25:25;;;;;;;67.57;41.60;;;;;;;1.40;62.25;98216.22;10272555;28;20081;-58
2022/01/28 20:30:26;;;;;;;51.20;32.03;;;;;;;1.16;62.00;98191.38;10290960;28;20104;-58
2022/01/28 20:35:25;;;;;;;52.30;31.20;;;;;;;1.23;61.01;98185.69;10291746;28;20073;-58
2022/01/28 20:40:30;;;;;;;42.67;26.48;;;;;;;1.38;60.50;98207.59;10290312;28;20061;-58
2022/01/28 20:45:29;;;;;;;33.53;20.38;;;;;;;1.43;59.38;98217.22;10318748;28;20072;-57
2022/01/28 20:50:29;;;;;;;27.23;16.52;;;;;;;1.47;58.38;98219.09;10330672;28;20076;-58
2022/01/28 20:55:28;;;;;;;23.83;15.65;;;;;;;1.48;57.45;98220.88;10329720;28;20080;-58
2022/01/28 21:00:27;;;;;;;24.63;14.00;;;;;;;1.08;57.19;98132.25;10330835;28;20057;-58
2022/01/28 21:05:26;;;;;;;33.45;17.50;;;;;;;1.50;56.92;98203.00;10330404;28;20084;-58
2022/01/28 21:10:27;;;;;;;84.82;47.83;;;;;;;1.33;57.51;98215.94;10330063;28;20044;-58
2022/01/28 21:15:26;;;;;;;46.40;27.35;;;;;;;1.32;57.99;98214.22;10326479;28;20456;-58
2022/01/28 21:20:25;;;;;;;30.73;19.60;;;;;;;1.19;58.15;98214.50;10328292;28;20516;-58
2022/01/28 21:25:24;;;;;;;40.88;24.70;;;;;;;0.96;58.71;98207.50;10329721;28;20076;-58
2022/01/28 21:30:23;;;;;;;57.17;36.63;;;;;;;0.83;59.09;98221.44;10331102;28;20075;-58
2022/01/28 21:35:22;;;;;;;62.10;39.50;;;;;;;0.53;59.38;98197.94;10336352;28;20070;-58
2022/01/28 21:40:21;;;;;;;90.03;54.30;;;;;;;0.63;60.13;98223.06;10336283;28;20037;-58
2022/01/28 21:45:21;;;;;;;110.57;63.35;;;;;;;0.36;61.86;98212.47;10333999;28;20480;-58
2022/01/28 21:50:20;;;;;;;111.68;65.60;;;;;;;0.01;62.15;98192.16;10337772;28;20069;-58
2022/01/28 21:55:19;;;;;;;93.30;52.03;;;;;;;-0.25;62.24;98173.06;10336511;28;20033;-58
2022/01/28 22:00:18;;;;;;;56.08;33.42;;;;;;;-0.30;62.51;98186.38;10337483;28;20518;-58
2022/01/28 22:05:17;;;;;;;;;;;;;;;-0.29;62.41;98213.66;10336561;28;20076;-58
2022/01/28 22:10:16;;;;;;;41.10;24.42;;;;;;;-0.32;62.50;98201.63;10336669;28;19987;-58
2022/01/28 22:15:15;;;;;;;63.25;36.55;;;;;;;-0.37;62.14;98203.97;10334015;28;20068;-58
2022/01/28 22:20:14;;;;;;;68.55;39.65;;;;;;;-0.63;63.09;98166.97;10336603;28;20487;-58
2022/01/28 22:25:13;;;;;;;58.53;35.42;;;;;;;-0.97;63.33;98128.75;10336638;28;20500;-58
2022/01/28 22:30:16;;;;;;;69.95;42.25;;;;;;;-0.72;63.93;98181.81;10337293;28;20044;-58
2022/01/28 22:35:15;;;;;;;78.72;43.38;;;;;;;-0.80;64.84;98201.81;10335604;28;20072;-59
2022/01/28 22:40:14;;;;;;;82.85;47.13;;;;;;;-0.86;64.79;98201.50;10335149;28;20068;-58
2022/01/28 22:45:13;;;;;;;;;;;;;;;-0.91;64.88;98200.38;10336487;28;20069;-58
2022/01/28 22:50:13;;;;;;;84.88;44.70;;;;;;;-0.96;64.87;98198.41;10332020;28;19909;-59
2022/01/28 22:55:13;;;;;;;79.70;44.75;;;;;;;-1.06;65.26;98194.50;10334743;28;20163;-58
2022/01/28 23:00:18;;;;;;;59.53;34.28;;;;;;;-1.59;65.55;98116.22;10335010;28;20990;-58
2022/01/28 23:05:17;;;;;;;75.53;40.65;;;;;;;-1.62;66.77;98128.81;10334512;28;20080;-58
2022/01/28 23:10:16;;;;;;;77.72;42.85;;;;;;;-1.16;66.50;98200.81;10335148;28;20599;-59
2022/01/28 23:15:15;;;;;;;80.50;45.58;;;;;;;-2.04;66.33;98052.84;10335209;28;20068;-58
2022/01/28 23:20:15;;;;;;;111.63;59.80;;;;;;;-1.24;66.88;98205.47;10331513;28;20034;-58
2022/01/28 23:25:14;;;;;;;130.95;72.78;;;;;;;-1.36;68.58;98209.94;10330448;28;20486;-58
2022/01/28 23:30:13;;;;;;;126.50;72.47;;;;;;;-1.30;68.18;98206.84;10331810;28;20085;-58
2022/01/28 23:35:13;;;;;;;;;;;;;;;-1.25;67.93;98208.84;10331124;28;20564;-58
2022/01/28 23:40:12;;;;;;;94.93;52.65;;;;;;;-1.15;67.66;98199.13;10334035;28;20414;-58
2022/01/28 23:45:11;;;;;;;93.00;51.80;;;;;;;-1.23;68.10;98158.88;10334033;28;20076;-58
2022/01/28 23:50:10;;;;;;;77.57;42.38;;;;;;;-0.99;67.94;98181.28;10329968;28;20103;-58
2022/01/28 23:55:09;;;;;;;69.63;39.10;;;;;;;-1.06;67.56;98162.28;10333253;28;20025;-58
